Dallas, Texas
Current Conditions -  °F | °C
As of 12:53 AM on Saturday 29 Nov 2014 (Local Time) from KDAL Reporting Station
Few Clouds Few Clouds  
Wind Chill: 61°   Ceiling: Unl
Heat Index: 61°   Visibility: 10mi
Dew Point: 47°   Wind: 13mph
Humidity: 60%   Direction: 200°SSW
Pressure: 29.97"   Gusts: NA
Location:  32.78°N, 96.79°W
Report Text: KDAL 290653Z 20011KT 10SM FEW250 16/08 A2997 RMK AO2 SLP143 T01610083
Loading
Personal Weather Stations






























Interactive Weather Map New forecast layout! Learn more

10-Day Weather Forecast

Advertisements
Track Severe Weather on mobile